sensor_id;sensor_type;location;lat;lon;timestamp;pressure;altitude;pressure_sealevel;temperature;humidity
28167;BME280;15455;53.376;-6.262;2023-02-23T00:02:40;102014.50;;;2.97;100.00
28167;BME280;15455;53.376;-6.262;2023-02-23T00:05:28;102029.88;;;2.95;100.00
28167;BME280;15455;53.376;-6.262;2023-02-23T00:08:14;102026.28;;;2.92;100.00
28167;BME280;15455;53.376;-6.262;2023-02-23T00:10:59;102024.50;;;2.91;100.00
28167;BME280;15455;53.376;-6.262;2023-02-23T00:13:46;102037.19;;;2.86;100.00
28167;BME280;15455;53.376;-6.262;2023-02-23T00:16:34;102040.41;;;2.82;100.00
28167;BME280;15455;53.376;-6.262;2023-02-23T00:19:19;102040.47;;;2.84;100.00
28167;BME280;15455;53.376;-6.262;2023-02-23T00:22:05;102044.25;;;2.90;100.00
28167;BME280;15455;53.376;-6.262;2023-02-23T00:24:50;102039.34;;;2.95;100.00
28167;BME280;15455;53.376;-6.262;2023-02-23T00:27:36;102040.84;;;2.91;100.00
28167;BME280;15455;53.376;-6.262;2023-02-23T00:30:28;102041.59;;;2.89;100.00
28167;BME280;15455;53.376;-6.262;2023-02-23T00:33:13;102047.00;;;2.93;100.00
28167;BME280;15455;53.376;-6.262;2023-02-23T00:36:04;102047.22;;;2.98;100.00
28167;BME280;15455;53.376;-6.262;2023-02-23T00:38:55;102051.66;;;3.01;100.00
28167;BME280;15455;53.376;-6.262;2023-02-23T00:41:40;102047.44;;;3.03;100.00
28167;BME280;15455;53.376;-6.262;2023-02-23T00:44:26;102058.47;;;3.00;100.00
28167;BME280;15455;53.376;-6.262;2023-02-23T00:47:11;102060.25;;;3.01;100.00
28167;BME280;15455;53.376;-6.262;2023-02-23T00:49:56;102055.81;;;2.99;100.00
28167;BME280;15455;53.376;-6.262;2023-02-23T00:52:43;102055.59;;;2.94;100.00
28167;BME280;15455;53.376;-6.262;2023-02-23T00:55:29;102050.44;;;2.94;100.00
28167;BME280;15455;53.376;-6.262;2023-02-23T00:58:14;102059.47;;;3.02;100.00
28167;BME280;15455;53.376;-6.262;2023-02-23T01:01:04;102059.47;;;3.02;100.00
28167;BME280;15455;53.376;-6.262;2023-02-23T01:03:50;102050.00;;;3.03;100.00
28167;BME280;15455;53.376;-6.262;2023-02-23T01:06:38;102054.16;;;2.99;100.00
28167;BME280;15455;53.376;-6.262;2023-02-23T01:09:25;102053.03;;;2.94;100.00
28167;BME280;15455;53.376;-6.262;2023-02-23T01:12:13;102056.19;;;2.88;100.00
28167;BME280;15455;53.376;-6.262;2023-02-23T01:15:01;102067.06;;;2.83;100.00
28167;BME280;15455;53.376;-6.262;2023-02-23T01:17:49;102073.53;;;2.74;100.00
28167;BME280;15455;53.376;-6.262;2023-02-23T01:20:35;102076.03;;;2.73;100.00
28167;BME280;15455;53.376;-6.262;2023-02-23T01:23:20;102072.34;;;2.68;100.00
28167;BME280;15455;53.376;-6.262;2023-02-23T01:26:17;102086.66;;;2.63;100.00
28167;BME280;15455;53.376;-6.262;2023-02-23T01:29:08;102075.19;;;2.56;100.00
28167;BME280;15455;53.376;-6.262;2023-02-23T01:31:54;102084.19;;;2.48;100.00
28167;BME280;15455;53.376;-6.262;2023-02-23T01:34:41;102087.09;;;2.37;100.00
28167;BME280;15455;53.376;-6.262;2023-02-23T01:37:33;102087.41;;;2.27;100.00
28167;BME280;15455;53.376;-6.262;2023-02-23T01:40:23;102087.81;;;2.18;100.00
28167;BME280;15455;53.376;-6.262;2023-02-23T01:43:18;102097.84;;;2.14;100.00
28167;BME280;15455;53.376;-6.262;2023-02-23T01:46:10;102098.59;;;2.11;100.00
28167;BME280;15455;53.376;-6.262;2023-02-23T01:48:56;102106.16;;;2.08;100.00
28167;BME280;15455;53.376;-6.262;2023-02-23T01:51:46;102110.25;;;2.04;100.00
28167;BME280;15455;53.376;-6.262;2023-02-23T01:54:37;102112.72;;;2.03;100.00
28167;BME280;15455;53.376;-6.262;2023-02-23T01:57:23;102123.91;;;2.03;100.00
28167;BME280;15455;53.376;-6.262;2023-02-23T02:00:10;102120.00;;;2.10;100.00
28167;BME280;15455;53.376;-6.262;2023-02-23T02:03:00;102118.38;;;2.12;100.00
28167;BME280;15455;53.376;-6.262;2023-02-23T02:05:49;102120.94;;;2.12;100.00
28167;BME280;15455;53.376;-6.262;2023-02-23T02:08:36;102128.34;;;2.06;100.00
28167;BME280;15455;53.376;-6.262;2023-02-23T02:11:29;102119.22;;;1.96;100.00
28167;BME280;15455;53.376;-6.262;2023-02-23T02:14:18;102130.72;;;1.86;100.00
28167;BME280;15455;53.376;-6.262;2023-02-23T02:17:14;102140.81;;;1.83;100.00
28167;BME280;15455;53.376;-6.262;2023-02-23T02:26:58;102151.06;;;1.67;100.00
28167;BME280;15455;53.376;-6.262;2023-02-23T02:43:06;102172.81;;;1.57;100.00
28167;BME280;15455;53.376;-6.262;2023-02-23T02:49:17;102161.41;;;1.52;100.00
28167;BME280;15455;53.376;-6.262;2023-02-23T02:52:19;102172.22;;;1.46;100.00
28167;BME280;15455;53.376;-6.262;2023-02-23T02:55:14;102166.25;;;1.47;100.00
28167;BME280;15455;53.376;-6.262;2023-02-23T02:58:03;102170.59;;;1.48;100.00
28167;BME280;15455;53.376;-6.262;2023-02-23T03:00:52;102172.31;;;1.48;100.00
28167;BME280;15455;53.376;-6.262;2023-02-23T03:03:58;102176.38;;;1.44;100.00
28167;BME280;15455;53.376;-6.262;2023-02-23T03:07:14;102172.75;;;1.41;100.00
28167;BME280;15455;53.376;-6.262;2023-02-23T03:14:24;102182.94;;;1.39;100.00
28167;BME280;15455;53.376;-6.262;2023-02-23T03:17:44;102182.59;;;1.48;100.00
28167;BME280;15455;53.376;-6.262;2023-02-23T03:20:53;102173.88;;;1.46;100.00
28167;BME280;15455;53.376;-6.262;2023-02-23T03:30:39;102181.53;;;1.29;100.00
28167;BME280;15455;53.376;-6.262;2023-02-23T03:37:19;102184.44;;;1.20;100.00
28167;BME280;15455;53.376;-6.262;2023-02-23T03:40:31;102185.22;;;1.19;100.00
28167;BME280;15455;53.376;-6.262;2023-02-23T03:43:50;102181.59;;;1.16;100.00
28167;BME280;15455;53.376;-6.262;2023-02-23T03:46:57;102189.41;;;1.17;100.00
28167;BME280;15455;53.376;-6.262;2023-02-23T03:50:06;102200.75;;;1.21;100.00
28167;BME280;15455;53.376;-6.262;2023-02-23T03:53:16;102196.41;;;1.20;100.00
28167;BME280;15455;53.376;-6.262;2023-02-23T03:56:23;102197.22;;;1.19;100.00
28167;BME280;15455;53.376;-6.262;2023-02-23T03:59:33;102217.50;;;1.14;100.00
28167;BME280;15455;53.376;-6.262;2023-02-23T04:02:38;102220.25;;;1.17;100.00
28167;BME280;15455;53.376;-6.262;2023-02-23T04:05:45;102214.13;;;1.15;100.00
28167;BME280;15455;53.376;-6.262;2023-02-23T04:08:52;102216.59;;;1.14;100.00
28167;BME280;15455;53.376;-6.262;2023-02-23T04:12:10;102226.53;;;1.08;100.00
28167;BME280;15455;53.376;-6.262;2023-02-23T04:15:22;102219.41;;;1.03;100.00
28167;BME280;15455;53.376;-6.262;2023-02-23T04:18:20;102221.81;;;1.00;100.00
28167;BME280;15455;53.376;-6.262;2023-02-23T04:21:07;102220.84;;;0.98;100.00
28167;BME280;15455;53.376;-6.262;2023-02-23T04:23:53;102220.03;;;0.99;100.00
28167;BME280;15455;53.376;-6.262;2023-02-23T04:26:38;102222.50;;;0.98;100.00
28167;BME280;15455;53.376;-6.262;2023-02-23T04:29:23;102229.06;;;0.93;100.00
28167;BME280;15455;53.376;-6.262;2023-02-23T04:32:14;102237.28;;;0.87;100.00
28167;BME280;15455;53.376;-6.262;2023-02-23T04:35:01;102244.72;;;0.82;100.00
28167;BME280;15455;53.376;-6.262;2023-02-23T04:37:46;102239.38;;;0.79;100.00
28167;BME280;15455;53.376;-6.262;2023-02-23T04:40:32;102242.66;;;0.77;100.00
28167;BME280;15455;53.376;-6.262;2023-02-23T04:43:18;102239.09;;;0.75;100.00
28167;BME280;15455;53.376;-6.262;2023-02-23T04:46:04;102246.53;;;0.70;100.00
28167;BME280;15455;53.376;-6.262;2023-02-23T04:48:49;102240.28;;;0.66;100.00
28167;BME280;15455;53.376;-6.262;2023-02-23T04:51:35;102244.38;;;0.63;100.00
28167;BME280;15455;53.376;-6.262;2023-02-23T04:54:21;102241.72;;;0.61;100.00
28167;BME280;15455;53.376;-6.262;2023-02-23T04:57:06;102240.94;;;0.62;100.00
28167;BME280;15455;53.376;-6.262;2023-02-23T04:59:53;102246.84;;;0.61;100.00
28167;BME280;15455;53.376;-6.262;2023-02-23T05:02:38;102246.94;;;0.63;100.00
28167;BME280;15455;53.376;-6.262;2023-02-23T05:05:24;102238.34;;;0.62;100.00
28167;BME280;15455;53.376;-6.262;2023-02-23T05:08:10;102236.28;;;0.57;100.00
28167;BME280;15455;53.376;-6.262;2023-02-23T05:10:55;102234.78;;;0.60;100.00
28167;BME280;15455;53.376;-6.262;2023-02-23T05:13:40;102232.41;;;0.63;100.00
28167;BME280;15455;53.376;-6.262;2023-02-23T05:16:26;102233.41;;;0.65;100.00
28167;BME280;15455;53.376;-6.262;2023-02-23T05:19:12;102223.13;;;0.65;100.00
28167;BME280;15455;53.376;-6.262;2023-02-23T05:21:57;102216.09;;;0.63;100.00
28167;BME280;15455;53.376;-6.262;2023-02-23T05:24:43;102217.41;;;0.56;100.00
28167;BME280;15455;53.376;-6.262;2023-02-23T05:27:28;102204.97;;;0.49;100.00
28167;BME280;15455;53.376;-6.262;2023-02-23T05:30:14;102201.94;;;0.41;100.00
28167;BME280;15455;53.376;-6.262;2023-02-23T05:33:00;102204.53;;;0.28;100.00
28167;BME280;15455;53.376;-6.262;2023-02-23T05:35:45;102207.63;;;0.09;100.00
28167;BME280;15455;53.376;-6.262;2023-02-23T05:38:31;102212.91;;;-0.02;100.00
28167;BME280;15455;53.376;-6.262;2023-02-23T05:41:20;102214.03;;;-0.11;100.00
28167;BME280;15455;53.376;-6.262;2023-02-23T05:44:06;102219.13;;;-0.25;100.00
28167;BME280;15455;53.376;-6.262;2023-02-23T05:46:51;102231.66;;;-0.29;100.00
28167;BME280;15455;53.376;-6.262;2023-02-23T05:49:37;102232.97;;;-0.36;100.00
28167;BME280;15455;53.376;-6.262;2023-02-23T05:52:22;102236.03;;;-0.28;100.00
28167;BME280;15455;53.376;-6.262;2023-02-23T05:55:10;102240.56;;;-0.24;100.00
28167;BME280;15455;53.376;-6.262;2023-02-23T05:57:56;102240.66;;;-0.23;100.00
28167;BME280;15455;53.376;-6.262;2023-02-23T06:00:41;102237.31;;;-0.22;100.00
28167;BME280;15455;53.376;-6.262;2023-02-23T06:03:27;102238.00;;;-0.24;100.00
28167;BME280;15455;53.376;-6.262;2023-02-23T06:06:13;102231.47;;;-0.32;100.00
28167;BME280;15455;53.376;-6.262;2023-02-23T06:08:58;102224.44;;;-0.35;100.00
28167;BME280;15455;53.376;-6.262;2023-02-23T06:11:44;102235.81;;;-0.31;100.00
28167;BME280;15455;53.376;-6.262;2023-02-23T06:14:29;102227.84;;;-0.23;100.00
28167;BME280;15455;53.376;-6.262;2023-02-23T06:17:15;102239.28;;;-0.18;100.00
28167;BME280;15455;53.376;-6.262;2023-02-23T06:20:01;102239.28;;;-0.18;100.00
28167;BME280;15455;53.376;-6.262;2023-02-23T06:22:47;102236.94;;;-0.14;100.00
28167;BME280;15455;53.376;-6.262;2023-02-23T06:25:33;102237.72;;;-0.15;100.00
28167;BME280;15455;53.376;-6.262;2023-02-23T06:28:18;102240.97;;;-0.18;100.00
28167;BME280;15455;53.376;-6.262;2023-02-23T06:31:04;102233.34;;;-0.16;100.00
28167;BME280;15455;53.376;-6.262;2023-02-23T06:33:51;102230.41;;;-0.09;100.00
28167;BME280;15455;53.376;-6.262;2023-02-23T06:36:36;102225.38;;;-0.08;100.00
28167;BME280;15455;53.376;-6.262;2023-02-23T06:39:22;102220.63;;;-0.02;100.00
28167;BME280;15455;53.376;-6.262;2023-02-23T06:42:07;102230.91;;;0.12;100.00
28167;BME280;15455;53.376;-6.262;2023-02-23T06:44:52;102241.47;;;0.16;100.00
28167;BME280;15455;53.376;-6.262;2023-02-23T06:47:39;102245.91;;;0.19;100.00
28167;BME280;15455;53.376;-6.262;2023-02-23T06:50:25;102242.75;;;0.23;100.00
28167;BME280;15455;53.376;-6.262;2023-02-23T06:53:11;102245.72;;;0.29;100.00
28167;BME280;15455;53.376;-6.262;2023-02-23T06:55:57;102250.06;;;0.30;100.00
28167;BME280;15455;53.376;-6.262;2023-02-23T06:58:42;102254.19;;;0.28;100.00
28167;BME280;15455;53.376;-6.262;2023-02-23T07:01:27;102256.84;;;0.30;100.00
28167;BME280;15455;53.376;-6.262;2023-02-23T07:04:14;102262.00;;;0.30;100.00
28167;BME280;15455;53.376;-6.262;2023-02-23T07:07:01;102272.47;;;0.33;100.00
28167;BME280;15455;53.376;-6.262;2023-02-23T07:09:46;102270.22;;;0.38;100.00
28167;BME280;15455;53.376;-6.262;2023-02-23T07:12:32;102273.84;;;0.41;100.00
28167;BME280;15455;53.376;-6.262;2023-02-23T07:15:17;102279.38;;;0.34;100.00
28167;BME280;15455;53.376;-6.262;2023-02-23T07:18:05;102280.88;;;0.30;100.00
28167;BME280;15455;53.376;-6.262;2023-02-23T07:20:50;102293.81;;;0.32;100.00
28167;BME280;15455;53.376;-6.262;2023-02-23T07:23:36;102287.88;;;0.33;100.00
28167;BME280;15455;53.376;-6.262;2023-02-23T07:26:21;102290.63;;;0.36;100.00
28167;BME280;15455;53.376;-6.262;2023-02-23T07:29:06;102295.75;;;0.36;100.00
28167;BME280;15455;53.376;-6.262;2023-02-23T07:31:51;102303.28;;;0.33;100.00
28167;BME280;15455;53.376;-6.262;2023-02-23T07:34:37;102306.84;;;0.35;100.00
28167;BME280;15455;53.376;-6.262;2023-02-23T07:37:23;102314.56;;;0.35;100.00
28167;BME280;15455;53.376;-6.262;2023-02-23T07:40:10;102318.47;;;0.43;100.00
28167;BME280;15455;53.376;-6.262;2023-02-23T07:42:56;102330.94;;;0.50;100.00
28167;BME280;15455;53.376;-6.262;2023-02-23T07:45:42;102329.16;;;0.49;100.00
28167;BME280;15455;53.376;-6.262;2023-02-23T07:48:30;102327.56;;;0.51;100.00
28167;BME280;15455;53.376;-6.262;2023-02-23T07:51:16;102329.47;;;0.54;100.00
28167;BME280;15455;53.376;-6.262;2023-02-23T07:54:04;102336.88;;;0.63;100.00
28167;BME280;15455;53.376;-6.262;2023-02-23T07:56:50;102334.19;;;0.61;100.00
28167;BME280;15455;53.376;-6.262;2023-02-23T07:59:35;102332.59;;;0.63;100.00
28167;BME280;15455;53.376;-6.262;2023-02-23T08:02:21;102339.53;;;0.64;100.00
28167;BME280;15455;53.376;-6.262;2023-02-23T08:05:06;102347.22;;;0.64;100.00
28167;BME280;15455;53.376;-6.262;2023-02-23T08:07:53;102353.47;;;0.68;100.00
28167;BME280;15455;53.376;-6.262;2023-02-23T08:10:38;102349.59;;;0.75;100.00
28167;BME280;15455;53.376;-6.262;2023-02-23T08:13:24;102349.19;;;0.82;100.00
28167;BME280;15455;53.376;-6.262;2023-02-23T08:16:09;102355.53;;;0.87;100.00
28167;BME280;15455;53.376;-6.262;2023-02-23T08:18:57;102355.72;;;0.90;100.00
28167;BME280;15455;53.376;-6.262;2023-02-23T08:21:43;102351.53;;;0.92;100.00
28167;BME280;15455;53.376;-6.262;2023-02-23T08:24:29;102359.44;;;0.95;100.00
28167;BME280;15455;53.376;-6.262;2023-02-23T08:27:15;102366.56;;;0.99;100.00
28167;BME280;15455;53.376;-6.262;2023-02-23T08:30:00;102364.09;;;1.01;100.00
28167;BME280;15455;53.376;-6.262;2023-02-23T08:32:48;102359.34;;;1.07;100.00
28167;BME280;15455;53.376;-6.262;2023-02-23T08:35:35;102368.22;;;1.12;100.00
28167;BME280;15455;53.376;-6.262;2023-02-23T08:38:20;102369.59;;;1.20;100.00
28167;BME280;15455;53.376;-6.262;2023-02-23T08:41:05;102362.53;;;1.31;100.00
28167;BME280;15455;53.376;-6.262;2023-02-23T08:43:51;102356.25;;;1.41;100.00
28167;BME280;15455;53.376;-6.262;2023-02-23T08:46:36;102355.56;;;1.44;100.00
28167;BME280;15455;53.376;-6.262;2023-02-23T08:49:22;102351.41;;;1.46;100.00
28167;BME280;15455;53.376;-6.262;2023-02-23T08:52:07;102355.16;;;1.51;100.00
28167;BME280;15455;53.376;-6.262;2023-02-23T08:54:52;102359.97;;;1.60;100.00
28167;BME280;15455;53.376;-6.262;2023-02-23T08:57:38;102359.34;;;1.64;100.00
28167;BME280;15455;53.376;-6.262;2023-02-23T09:00:23;102367.34;;;1.68;100.00
28167;BME280;15455;53.376;-6.262;2023-02-23T09:03:09;102361.75;;;1.76;100.00
28167;BME280;15455;53.376;-6.262;2023-02-23T09:06:07;102365.59;;;1.82;100.00
28167;BME280;15455;53.376;-6.262;2023-02-23T09:08:54;102372.28;;;1.94;100.00
28167;BME280;15455;53.376;-6.262;2023-02-23T09:11:40;102371.84;;;2.01;100.00
28167;BME280;15455;53.376;-6.262;2023-02-23T09:14:26;102371.50;;;2.10;100.00
28167;BME280;15455;53.376;-6.262;2023-02-23T09:17:12;102368.03;;;2.24;100.00
28167;BME280;15455;53.376;-6.262;2023-02-23T09:19:57;102362.06;;;2.40;100.00
28167;BME280;15455;53.376;-6.262;2023-02-23T09:22:43;102359.38;;;2.53;100.00
28167;BME280;15455;53.376;-6.262;2023-02-23T09:25:32;102354.63;;;2.61;100.00
28167;BME280;15455;53.376;-6.262;2023-02-23T09:28:19;102363.78;;;2.71;100.00
28167;BME280;15455;53.376;-6.262;2023-02-23T09:31:10;102356.56;;;2.80;100.00
28167;BME280;15455;53.376;-6.262;2023-02-23T09:33:56;102352.97;;;2.93;100.00
28167;BME280;15455;53.376;-6.262;2023-02-23T09:36:42;102355.16;;;3.02;100.00
28167;BME280;15455;53.376;-6.262;2023-02-23T09:39:28;102348.88;;;3.13;100.00
28167;BME280;15455;53.376;-6.262;2023-02-23T09:42:37;102351.56;;;3.31;100.00
28167;BME280;15455;53.376;-6.262;2023-02-23T09:48:36;102343.19;;;3.52;100.00
28167;BME280;15455;53.376;-6.262;2023-02-23T09:51:22;102342.84;;;3.62;100.00
28167;BME280;15455;53.376;-6.262;2023-02-23T09:54:10;102356.34;;;3.73;100.00
28167;BME280;15455;53.376;-6.262;2023-02-23T09:56:59;102352.91;;;3.90;100.00
28167;BME280;15455;53.376;-6.262;2023-02-23T09:59:47;102348.41;;;4.04;100.00
28167;BME280;15455;53.376;-6.262;2023-02-23T10:02:54;102347.41;;;4.18;100.00
28167;BME280;15455;53.376;-6.262;2023-02-23T10:05:55;102348.19;;;4.34;100.00
28167;BME280;15455;53.376;-6.262;2023-02-23T10:08:47;102350.47;;;4.46;100.00
28167;BME280;15455;53.376;-6.262;2023-02-23T10:23:48;102333.00;;;4.78;100.00
28167;BME280;15455;53.376;-6.262;2023-02-23T10:26:58;102332.47;;;4.85;100.00
28167;BME280;15455;53.376;-6.262;2023-02-23T10:29:51;102336.47;;;4.96;100.00
28167;BME280;15455;53.376;-6.262;2023-02-23T10:35:29;102326.81;;;5.12;100.00
28167;BME280;15455;53.376;-6.262;2023-02-23T10:38:17;102331.59;;;5.22;100.00
28167;BME280;15455;53.376;-6.262;2023-02-23T10:41:03;102333.72;;;5.31;100.00
28167;BME280;15455;53.376;-6.262;2023-02-23T10:43:49;102330.50;;;5.36;100.00
28167;BME280;15455;53.376;-6.262;2023-02-23T10:46:39;102332.34;;;5.39;100.00
28167;BME280;15455;53.376;-6.262;2023-02-23T10:49:38;102341.00;;;5.39;100.00
28167;BME280;15455;53.376;-6.262;2023-02-23T10:52:40;102337.72;;;5.44;100.00
28167;BME280;15455;53.376;-6.262;2023-02-23T10:55:30;102347.00;;;5.58;100.00
28167;BME280;15455;53.376;-6.262;2023-02-23T10:58:19;102335.34;;;5.68;100.00
28167;BME280;15455;53.376;-6.262;2023-02-23T11:01:05;102333.19;;;5.79;100.00
28167;BME280;15455;53.376;-6.262;2023-02-23T11:03:50;102330.22;;;5.90;100.00
28167;BME280;15455;53.376;-6.262;2023-02-23T11:07:17;102329.94;;;6.02;100.00
28167;BME280;15455;53.376;-6.262;2023-02-23T11:10:25;102330.97;;;6.07;100.00
28167;BME280;15455;53.376;-6.262;2023-02-23T11:13:22;102335.41;;;6.10;100.00
28167;BME280;15455;53.376;-6.262;2023-02-23T11:19:01;102324.47;;;6.17;100.00
28167;BME280;15455;53.376;-6.262;2023-02-23T11:21:51;102319.41;;;6.20;100.00
28167;BME280;15455;53.376;-6.262;2023-02-23T11:24:39;102314.69;;;6.31;100.00
28167;BME280;15455;53.376;-6.262;2023-02-23T11:27:26;102308.78;;;6.35;100.00
28167;BME280;15455;53.376;-6.262;2023-02-23T11:30:12;102310.84;;;6.44;100.00
28167;BME280;15455;53.376;-6.262;2023-02-23T11:32:59;102307.81;;;6.54;100.00
28167;BME280;15455;53.376;-6.262;2023-02-23T11:35:59;102310.69;;;6.62;100.00
28167;BME280;15455;53.376;-6.262;2023-02-23T11:38:45;102303.97;;;6.67;100.00
28167;BME280;15455;53.376;-6.262;2023-02-23T11:41:33;102300.44;;;6.65;100.00
28167;BME280;15455;53.376;-6.262;2023-02-23T11:44:22;102303.38;;;6.74;100.00
28167;BME280;15455;53.376;-6.262;2023-02-23T11:47:20;102292.34;;;6.80;100.00
28167;BME280;15455;53.376;-6.262;2023-02-23T11:50:22;102294.06;;;6.80;100.00
28167;BME280;15455;53.376;-6.262;2023-02-23T11:53:18;102296.22;;;6.91;100.00
28167;BME280;15455;53.376;-6.262;2023-02-23T11:56:05;102291.41;;;7.01;100.00
28167;BME280;15455;53.376;-6.262;2023-02-23T11:59:14;102292.06;;;6.95;100.00
28167;BME280;15455;53.376;-6.262;2023-02-23T12:02:28;102283.69;;;7.02;100.00
28167;BME280;15455;53.376;-6.262;2023-02-23T12:05:21;102289.13;;;7.10;100.00
28167;BME280;15455;53.376;-6.262;2023-02-23T12:08:13;102278.22;;;6.96;100.00
28167;BME280;15455;53.376;-6.262;2023-02-23T12:11:03;102277.56;;;7.02;100.00
28167;BME280;15455;53.376;-6.262;2023-02-23T12:14:13;102275.34;;;7.11;100.00
28167;BME280;15455;53.376;-6.262;2023-02-23T12:20:20;102274.28;;;7.06;100.00
28167;BME280;15455;53.376;-6.262;2023-02-23T12:23:12;102260.63;;;7.11;100.00
28167;BME280;15455;53.376;-6.262;2023-02-23T12:26:05;102266.53;;;7.32;100.00
28167;BME280;15455;53.376;-6.262;2023-02-23T12:35:22;102246.41;;;7.50;100.00
28167;BME280;15455;53.376;-6.262;2023-02-23T12:38:53;102237.16;;;7.58;100.00
28167;BME280;15455;53.376;-6.262;2023-02-23T12:44:45;102224.78;;;8.04;100.00
28167;BME280;15455;53.376;-6.262;2023-02-23T12:47:39;102221.63;;;8.14;100.00
28167;BME280;15455;53.376;-6.262;2023-02-23T12:50:47;102222.75;;;8.23;100.00
28167;BME280;15455;53.376;-6.262;2023-02-23T12:53:39;102216.38;;;8.13;100.00
28167;BME280;15455;53.376;-6.262;2023-02-23T12:56:52;102204.56;;;8.23;100.00
28167;BME280;15455;53.376;-6.262;2023-02-23T13:15:20;102180.78;;;8.39;100.00
28167;BME280;15455;53.376;-6.262;2023-02-23T13:24:17;102174.75;;;8.71;100.00
28167;BME280;15455;53.376;-6.262;2023-02-23T13:27:11;102174.06;;;8.76;100.00
28167;BME280;15455;53.376;-6.262;2023-02-23T13:30:01;102171.78;;;8.87;100.00
28167;BME280;15455;53.376;-6.262;2023-02-23T13:32:47;102172.88;;;8.97;100.00
28167;BME280;15455;53.376;-6.262;2023-02-23T13:35:35;102172.88;;;8.97;100.00
28167;BME280;15455;53.376;-6.262;2023-02-23T13:51:23;102172.56;;;8.84;100.00
28167;BME280;15455;53.376;-6.262;2023-02-23T13:57:12;102166.66;;;8.90;100.00
28167;BME280;15455;53.376;-6.262;2023-02-23T14:00:01;102171.84;;;8.90;100.00
28167;BME280;15455;53.376;-6.262;2023-02-23T14:03:02;102168.56;;;8.97;100.00
28167;BME280;15455;53.376;-6.262;2023-02-23T14:05:53;102166.88;;;8.99;100.00
28167;BME280;15455;53.376;-6.262;2023-02-23T14:08:43;102157.44;;;9.03;100.00
28167;BME280;15455;53.376;-6.262;2023-02-23T14:11:51;102153.97;;;9.04;100.00
28167;BME280;15455;53.376;-6.262;2023-02-23T14:14:39;102148.19;;;9.14;100.00
28167;BME280;15455;53.376;-6.262;2023-02-23T14:26:14;102147.59;;;8.91;100.00
28167;BME280;15455;53.376;-6.262;2023-02-23T14:29:21;102156.44;;;8.98;100.00
28167;BME280;15455;53.376;-6.262;2023-02-23T14:34:58;102142.63;;;8.68;100.00
28167;BME280;15455;53.376;-6.262;2023-02-23T14:37:54;102139.28;;;8.73;100.00
28167;BME280;15455;53.376;-6.262;2023-02-23T14:40:42;102147.09;;;8.73;100.00
28167;BME280;15455;53.376;-6.262;2023-02-23T14:43:39;102138.53;;;8.77;100.00
28167;BME280;15455;53.376;-6.262;2023-02-23T14:46:26;102138.63;;;8.81;100.00
28167;BME280;15455;53.376;-6.262;2023-02-23T14:49:18;102138.03;;;8.92;100.00
28167;BME280;15455;53.376;-6.262;2023-02-23T14:52:23;102144.03;;;8.89;100.00
28167;BME280;15455;53.376;-6.262;2023-02-23T14:57:56;102121.50;;;9.23;100.00
28167;BME280;15455;53.376;-6.262;2023-02-23T15:00:42;102118.94;;;9.25;100.00
28167;BME280;15455;53.376;-6.262;2023-02-23T15:03:28;102112.97;;;9.29;100.00
28167;BME280;15455;53.376;-6.262;2023-02-23T15:06:14;102115.59;;;9.30;100.00
28167;BME280;15455;53.376;-6.262;2023-02-23T15:09:00;102106.09;;;9.32;100.00
28167;BME280;15455;53.376;-6.262;2023-02-23T15:11:48;102102.16;;;9.13;100.00
28167;BME280;15455;53.376;-6.262;2023-02-23T15:14:38;102105.41;;;9.04;100.00
28167;BME280;15455;53.376;-6.262;2023-02-23T15:17:27;102103.84;;;9.13;100.00
28167;BME280;15455;53.376;-6.262;2023-02-23T15:20:18;102099.47;;;9.10;100.00
28167;BME280;15455;53.376;-6.262;2023-02-23T15:23:10;102099.44;;;9.09;100.00
28167;BME280;15455;53.376;-6.262;2023-02-23T15:25:57;102097.56;;;9.03;100.00
28167;BME280;15455;53.376;-6.262;2023-02-23T15:28:45;102091.13;;;8.90;100.00
28167;BME280;15455;53.376;-6.262;2023-02-23T15:31:30;102088.47;;;8.87;100.00
28167;BME280;15455;53.376;-6.262;2023-02-23T15:34:19;102088.47;;;8.87;100.00
28167;BME280;15455;53.376;-6.262;2023-02-23T15:37:11;102080.28;;;8.73;100.00
28167;BME280;15455;53.376;-6.262;2023-02-23T15:40:05;102078.34;;;8.66;100.00
28167;BME280;15455;53.376;-6.262;2023-02-23T15:42:55;102088.78;;;8.67;100.00
28167;BME280;15455;53.376;-6.262;2023-02-23T15:45:48;102087.81;;;8.62;100.00
28167;BME280;15455;53.376;-6.262;2023-02-23T15:48:44;102088.63;;;8.61;100.00
28167;BME280;15455;53.376;-6.262;2023-02-23T15:51:39;102089.22;;;8.51;100.00
28167;BME280;15455;53.376;-6.262;2023-02-23T15:54:42;102084.16;;;8.56;100.00
28167;BME280;15455;53.376;-6.262;2023-02-23T15:57:32;102079.06;;;8.60;100.00
28167;BME280;15455;53.376;-6.262;2023-02-23T16:00:24;102083.34;;;8.58;100.00
28167;BME280;15455;53.376;-6.262;2023-02-23T16:03:37;102077.41;;;8.62;100.00
28167;BME280;15455;53.376;-6.262;2023-02-23T16:06:34;102079.78;;;8.55;100.00
28167;BME280;15455;53.376;-6.262;2023-02-23T16:12:12;102081.88;;;8.38;100.00
28167;BME280;15455;53.376;-6.262;2023-02-23T16:15:00;102082.69;;;8.35;100.00
28167;BME280;15455;53.376;-6.262;2023-02-23T16:17:52;102079.19;;;8.34;100.00
28167;BME280;15455;53.376;-6.262;2023-02-23T16:20:51;102086.03;;;8.31;100.00
28167;BME280;15455;53.376;-6.262;2023-02-23T16:23:44;102081.50;;;8.24;100.00
28167;BME280;15455;53.376;-6.262;2023-02-23T16:26:59;102088.31;;;8.20;100.00
28167;BME280;15455;53.376;-6.262;2023-02-23T16:29:55;102083.84;;;8.16;100.00
28167;BME280;15455;53.376;-6.262;2023-02-23T16:32:42;102078.56;;;8.13;100.00
28167;BME280;15455;53.376;-6.262;2023-02-23T16:35:35;102083.72;;;8.11;100.00
28167;BME280;15455;53.376;-6.262;2023-02-23T16:38:27;102080.25;;;8.11;100.00
28167;BME280;15455;53.376;-6.262;2023-02-23T16:41:20;102073.06;;;8.02;100.00
28167;BME280;15455;53.376;-6.262;2023-02-23T16:44:10;102071.38;;;8.04;100.00
28167;BME280;15455;53.376;-6.262;2023-02-23T16:49:46;102066.06;;;7.99;100.00
28167;BME280;15455;53.376;-6.262;2023-02-23T16:52:32;102059.00;;;7.95;100.00